createdAt,value
2022-11-25T00:02:15.308Z,100493.69
2022-11-25T00:05:02.385Z,100492.91
2022-11-25T00:07:52.100Z,100489.50
2022-11-25T00:10:39.546Z,100481.91
2022-11-25T00:13:26.253Z,100489.19
2022-11-25T00:16:16.172Z,100483.19
2022-11-25T00:19:04.604Z,100483.56
2022-11-25T00:21:51.808Z,100481.19
2022-11-25T00:24:38.527Z,100480.84
2022-11-25T00:27:25.910Z,100484.63
2022-11-25T00:30:13.565Z,100468.13
2022-11-25T00:33:00.934Z,100478.16
2022-11-25T00:35:48.975Z,100474.13
2022-11-25T00:38:36.429Z,100465.84
2022-11-25T00:41:41.925Z,100465.19
2022-11-25T00:44:40.192Z,100460.22
2022-11-25T00:47:29.538Z,100458.88
2022-11-25T00:50:17.200Z,100465.34
2022-11-25T00:53:05.423Z,100468.44
2022-11-25T00:56:10.246Z,100469.69
2022-11-25T00:58:57.543Z,100471.75
2022-11-25T01:01:44.797Z,100469.28
2022-11-25T01:04:31.673Z,100472.16
2022-11-25T01:07:19.433Z,100479.34
2022-11-25T01:10:09.238Z,100471.56
2022-11-25T01:12:58.295Z,100470.87
2022-11-25T01:15:45.100Z,100474.53
2022-11-25T01:18:33.198Z,100478.38
2022-11-25T01:21:22.096Z,100477.75
2022-11-25T01:24:09.842Z,100476.22
2022-11-25T01:26:58.168Z,100485.16
2022-11-25T01:29:45.583Z,100475.78
2022-11-25T01:32:33.334Z,100478.69
2022-11-25T01:35:20.723Z,100479.91
2022-11-25T01:38:07.667Z,100478.50
2022-11-25T01:40:55.040Z,100482.28
2022-11-25T01:43:43.515Z,100477.19
2022-11-25T01:46:37.233Z,100474.72
2022-11-25T01:49:30.284Z,100478.41
2022-11-25T01:52:21.666Z,100482.09
2022-11-25T01:55:13.942Z,100480.53
2022-11-25T01:58:07.075Z,100482.72
2022-11-25T02:00:55.633Z,100470.56
2022-11-25T02:03:46.204Z,100474.22
2022-11-25T02:06:39.976Z,100471.75
2022-11-25T02:09:28.589Z,100476.34
2022-11-25T02:12:17.993Z,100470.25
2022-11-25T02:15:06.837Z,100471.28
2022-11-25T02:17:55.707Z,100473.16
2022-11-25T02:20:43.327Z,100468.97
2022-11-25T02:23:41.074Z,100470.81
2022-11-25T02:26:30.773Z,100463.03
2022-11-25T02:29:17.420Z,100474.53
2022-11-25T02:32:05.319Z,100465.94
2022-11-25T02:34:52.302Z,100471.25
2022-11-25T02:37:39.446Z,100467.69
2022-11-25T02:40:28.647Z,100464.28
2022-11-25T02:43:18.022Z,100465.13
2022-11-25T02:46:07.691Z,100474.06
2022-11-25T02:49:12.220Z,100465.28
2022-11-25T02:52:00.554Z,100467.16
2022-11-25T02:54:49.366Z,100473.50
2022-11-25T02:57:36.321Z,100473.56
2022-11-25T03:00:24.820Z,100474.50
2022-11-25T03:03:12.497Z,100476.53
2022-11-25T03:05:59.738Z,100486.44
2022-11-25T03:08:46.676Z,100488.22
2022-11-25T03:11:51.469Z,100483.97
2022-11-25T03:14:39.426Z,100481.41
2022-11-25T03:17:28.700Z,100489.41
2022-11-25T03:20:16.195Z,100485.97
2022-11-25T03:23:03.526Z,100482.38
2022-11-25T03:25:50.829Z,100476.25
2022-11-25T03:28:37.947Z,100480.69
2022-11-25T03:31:24.899Z,100482.53
2022-11-25T03:34:13.465Z,100481.00
2022-11-25T03:37:00.812Z,100482.03
2022-11-25T03:39:48.517Z,100476.00
2022-11-25T03:42:35.835Z,100480.66
2022-11-25T03:45:23.220Z,100480.78
2022-11-25T03:48:10.178Z,100482.62
2022-11-25T03:50:59.132Z,100486.47
2022-11-25T03:53:47.253Z,100477.94
2022-11-25T03:56:34.988Z,100476.50
2022-11-25T03:59:22.014Z,100480.16
2022-11-25T04:02:10.762Z,100480.22
2022-11-25T04:04:58.159Z,100480.41
2022-11-25T04:07:46.420Z,100487.34
2022-11-25T04:10:33.842Z,100478.50
2022-11-25T04:13:19.772Z,100482.00
2022-11-25T04:16:06.912Z,100484.56
2022-11-25T04:18:53.671Z,100473.16
2022-11-25T04:21:41.126Z,100480.31
2022-11-25T04:24:29.752Z,100488.41
2022-11-25T04:27:20.542Z,100480.56
2022-11-25T04:30:10.447Z,100481.41
2022-11-25T04:32:58.799Z,100482.28
2022-11-25T04:35:46.201Z,100485.84
2022-11-25T04:38:33.517Z,100487.56
2022-11-25T04:41:22.780Z,100489.41
2022-11-25T04:44:10.075Z,100490.41
2022-11-25T04:46:57.771Z,100497.41
2022-11-25T04:49:45.211Z,100492.25
2022-11-25T04:52:35.302Z,100484.47
2022-11-25T04:55:30.559Z,100485.56
2022-11-25T04:58:40.041Z,100480.28
2022-11-25T05:01:27.021Z,100469.84
2022-11-25T05:04:14.973Z,100473.56
2022-11-25T05:07:02.391Z,100482.53
2022-11-25T05:09:49.610Z,100476.38
2022-11-25T05:12:37.541Z,100493.03
2022-11-25T05:15:26.173Z,100487.97
2022-11-25T05:18:13.499Z,100493.19
2022-11-25T05:21:03.347Z,100495.75
2022-11-25T05:23:55.673Z,100489.50
2022-11-25T05:26:42.888Z,100494.03
2022-11-25T05:29:29.826Z,100490.63
2022-11-25T05:32:18.482Z,100498.37
2022-11-25T05:35:06.245Z,100491.63
2022-11-25T05:37:53.193Z,100497.87
2022-11-25T05:40:41.140Z,100488.97
2022-11-25T05:43:28.643Z,100495.03
2022-11-25T05:46:16.611Z,100492.47
2022-11-25T05:49:05.040Z,100493.31
2022-11-25T05:51:52.753Z,100494.25
2022-11-25T05:54:40.299Z,100494.19
2022-11-25T05:57:29.168Z,100498.66
2022-11-25T06:00:16.578Z,100491.63
2022-11-25T06:03:04.116Z,100484.50
2022-11-25T06:05:52.571Z,100495.97
2022-11-25T06:08:40.308Z,100489.91
2022-11-25T06:11:27.602Z,100486.41
2022-11-25T06:14:14.672Z,100494.41
2022-11-25T06:17:01.663Z,100491.81
2022-11-25T06:19:48.966Z,100498.00
2022-11-25T06:22:37.510Z,100500.72
2022-11-25T06:25:24.751Z,100500.84
2022-11-25T06:28:13.332Z,100507.13
2022-11-25T06:31:06.599Z,100505.34
2022-11-25T06:33:54.795Z,100505.28
2022-11-25T06:36:42.027Z,100510.53
2022-11-25T06:39:30.246Z,100520.16
2022-11-25T06:42:17.562Z,100513.25
2022-11-25T06:45:04.624Z,100521.16
2022-11-25T06:47:51.828Z,100515.06
2022-11-25T06:50:38.747Z,100507.13
2022-11-25T06:53:26.483Z,100511.41
2022-11-25T06:56:16.474Z,100511.47
2022-11-25T06:59:04.598Z,100513.19
2022-11-25T07:01:51.768Z,100513.97
2022-11-25T07:04:40.167Z,100518.22
2022-11-25T07:07:27.143Z,100520.75
2022-11-25T07:10:14.659Z,100524.09
2022-11-25T07:13:02.932Z,100525.63
2022-11-25T07:15:50.377Z,100531.56
2022-11-25T07:18:38.870Z,100531.34
2022-11-25T07:21:26.276Z,100531.09
2022-11-25T07:24:14.859Z,100524.69
2022-11-25T07:27:02.131Z,100533.09
2022-11-25T07:30:10.152Z,100535.47
2022-11-25T07:32:58.411Z,100547.72
2022-11-25T07:35:45.585Z,100529.06
2022-11-25T07:38:33.010Z,100534.81
2022-11-25T07:41:21.650Z,100531.84
2022-11-25T07:44:09.397Z,100539.34
2022-11-25T07:46:59.633Z,100538.91
2022-11-25T07:49:46.953Z,100543.34
2022-11-25T07:52:33.678Z,100547.59
2022-11-25T07:55:20.930Z,100546.56
2022-11-25T07:58:07.837Z,100539.41
2022-11-25T08:00:55.171Z,100542.75
2022-11-25T08:03:44.556Z,100544.25
2022-11-25T08:06:31.374Z,100548.94
2022-11-25T08:09:21.771Z,100551.91
2022-11-25T08:12:09.246Z,100553.50
2022-11-25T08:14:56.428Z,100560.94
2022-11-25T08:17:43.219Z,100555.09
2022-11-25T08:20:32.002Z,100558.19
2022-11-25T08:23:19.120Z,100566.75
2022-11-25T08:26:06.908Z,100565.50
2022-11-25T08:28:53.915Z,100562.47
2022-11-25T08:31:41.329Z,100560.22
2022-11-25T08:34:27.889Z,100565.87
2022-11-25T08:37:17.198Z,100561.63
2022-11-25T08:40:04.849Z,100568.75
2022-11-25T08:42:52.273Z,100562.69
2022-11-25T08:45:40.538Z,100568.06
2022-11-25T08:48:27.562Z,100558.69
2022-11-25T08:51:16.521Z,100565.47
2022-11-25T08:54:05.900Z,100565.19
2022-11-25T08:56:52.995Z,100562.22
2022-11-25T08:59:40.579Z,100560.97
2022-11-25T09:02:27.761Z,100560.69
2022-11-25T09:05:18.189Z,100559.94
2022-11-25T09:08:05.736Z,100566.34
2022-11-25T09:10:54.368Z,100559.75
2022-11-25T09:13:41.115Z,100564.62
2022-11-25T09:16:28.628Z,100561.53
2022-11-25T09:19:15.703Z,100567.25
2022-11-25T09:22:03.112Z,100568.87
2022-11-25T09:24:50.349Z,100570.91
2022-11-25T09:27:39.027Z,100564.59
2022-11-25T09:30:26.809Z,100558.81
2022-11-25T09:33:14.359Z,100556.63
2022-11-25T09:36:01.654Z,100561.94
2022-11-25T09:38:48.923Z,100564.78
2022-11-25T09:42:15.362Z,100560.09
2022-11-25T09:45:32.264Z,100557.66
2022-11-25T09:48:42.221Z,100560.72
2022-11-25T09:51:39.325Z,100568.13
2022-11-25T09:54:30.971Z,100563.22
2022-11-25T09:57:27.167Z,100569.75
2022-11-25T10:00:19.117Z,100567.66
2022-11-25T10:03:14.241Z,100564.72
2022-11-25T10:06:06.219Z,100568.50
2022-11-25T10:08:57.213Z,100570.81
2022-11-25T10:11:51.495Z,100573.00
2022-11-25T10:14:43.906Z,100570.88
2022-11-25T10:17:39.299Z,100572.53
2022-11-25T10:20:30.571Z,100560.75
2022-11-25T10:23:27.772Z,100561.78
2022-11-25T10:26:17.827Z,100561.78
2022-11-25T10:29:21.227Z,100554.06
2022-11-25T10:32:23.847Z,100550.84
2022-11-25T10:35:22.027Z,100554.84
2022-11-25T10:38:19.024Z,100568.66
2022-11-25T10:41:07.112Z,100564.78
2022-11-25T10:43:54.755Z,100559.81
2022-11-25T10:47:13.045Z,100562.06
2022-11-25T10:50:07.969Z,100557.31
2022-11-25T10:53:00.951Z,100556.69
2022-11-25T10:56:00.176Z,100555.31
2022-11-25T10:58:47.147Z,100553.00
2022-11-25T11:01:34.341Z,100545.66
2022-11-25T11:04:21.592Z,100553.03
2022-11-25T11:07:10.261Z,100539.88
2022-11-25T11:10:17.634Z,100542.00
2022-11-25T11:13:06.492Z,100537.44
2022-11-25T11:15:54.798Z,100535.87
2022-11-25T11:18:43.077Z,100534.91
2022-11-25T11:21:32.542Z,100533.62
2022-11-25T11:24:29.868Z,100533.19
2022-11-25T11:27:24.153Z,100529.88
2022-11-25T11:30:16.297Z,100528.37
2022-11-25T11:33:05.862Z,100531.13
2022-11-25T11:35:56.678Z,100528.13
2022-11-25T11:38:50.790Z,100526.72
2022-11-25T11:41:45.155Z,100534.91
2022-11-25T11:44:41.482Z,100526.34
2022-11-25T11:47:37.827Z,100534.22
2022-11-25T11:50:30.444Z,100517.91
2022-11-25T11:53:24.015Z,100517.44
2022-11-25T11:56:34.803Z,100524.22
2022-11-25T11:59:49.947Z,100530.78
2022-11-25T12:02:50.951Z,100515.31
2022-11-25T12:05:38.165Z,100520.41
2022-11-25T12:08:32.040Z,100523.25
2022-11-25T12:11:23.919Z,100527.31
2022-11-25T12:14:16.082Z,100526.94
2022-11-25T12:17:09.812Z,100524.69
2022-11-25T12:20:03.069Z,100524.97
2022-11-25T12:22:59.085Z,100527.78
2022-11-25T12:25:48.670Z,100523.53
2022-11-25T12:28:41.497Z,100522.38
2022-11-25T12:31:32.563Z,100531.41
2022-11-25T12:34:28.857Z,100527.50
2022-11-25T12:37:23.934Z,100539.19
2022-11-25T12:40:17.475Z,100534.59
2022-11-25T12:43:16.750Z,100544.78
2022-11-25T12:46:14.653Z,100538.97
2022-11-25T12:49:03.000Z,100535.53
2022-11-25T12:52:16.832Z,100539.19
2022-11-25T12:55:12.444Z,100540.75
2022-11-25T12:58:34.102Z,100547.69
2022-11-25T13:01:57.011Z,100542.81
2022-11-25T13:05:40.212Z,100549.84
2022-11-25T13:08:52.684Z,100550.34
2022-11-25T13:12:07.215Z,100556.00
2022-11-25T13:15:19.453Z,100554.56
2022-11-25T13:18:14.222Z,100553.44
2022-11-25T13:21:08.660Z,100559.97
2022-11-25T13:23:58.953Z,100554.47
2022-11-25T13:26:50.806Z,100562.87
2022-11-25T13:30:03.257Z,100565.78
2022-11-25T13:32:51.997Z,100572.56
2022-11-25T13:35:49.238Z,100569.63
2022-11-25T13:38:39.048Z,100579.34
2022-11-25T13:41:37.307Z,100573.25
2022-11-25T13:44:32.238Z,100576.03
2022-11-25T13:47:34.159Z,100586.84
2022-11-25T13:50:28.957Z,100593.88
2022-11-25T13:53:33.880Z,100587.69
2022-11-25T13:56:30.776Z,100596.56
2022-11-25T13:59:37.187Z,100599.94
2022-11-25T14:02:49.576Z,100602.41
2022-11-25T14:05:59.505Z,100606.06
2022-11-25T14:08:56.474Z,100609.78
2022-11-25T14:12:08.867Z,100608.19
2022-11-25T14:15:12.741Z,100613.66
2022-11-25T14:19:12.067Z,100623.47
2022-11-25T14:22:07.736Z,100627.22
2022-11-25T14:25:01.825Z,100629.06
2022-11-25T14:28:03.466Z,100631.31
2022-11-25T14:30:54.241Z,100646.91
2022-11-25T14:33:49.750Z,100640.84
2022-11-25T14:36:41.948Z,100641.94
2022-11-25T14:39:35.230Z,100644.84
2022-11-25T14:42:24.327Z,100652.00
2022-11-25T14:45:24.207Z,100660.53
2022-11-25T14:48:15.814Z,100663.31
2022-11-25T14:51:06.884Z,100660.22
2022-11-25T14:53:54.712Z,100659.91
2022-11-25T14:56:41.915Z,100665.69
2022-11-25T14:59:29.499Z,100677.72
2022-11-25T15:02:30.638Z,100680.38
2022-11-25T15:05:20.559Z,100683.44
2022-11-25T15:08:12.283Z,100683.56
2022-11-25T15:11:02.406Z,100683.31
2022-11-25T15:13:55.826Z,100675.38
2022-11-25T15:16:43.907Z,100685.69
2022-11-25T15:19:36.077Z,100685.03
2022-11-25T15:22:24.683Z,100679.78
2022-11-25T15:25:15.962Z,100685.72
2022-11-25T15:28:03.073Z,100691.66
2022-11-25T15:30:57.728Z,100697.09
2022-11-25T15:33:45.418Z,100693.69
2022-11-25T15:36:33.773Z,100693.88
2022-11-25T15:39:29.518Z,100693.88
2022-11-25T15:42:20.680Z,100700.66
2022-11-25T15:45:20.915Z,100696.56
2022-11-25T15:48:08.214Z,100703.69
2022-11-25T15:51:02.884Z,100701.84
2022-11-25T15:53:55.532Z,100704.97
2022-11-25T15:56:48.917Z,100704.13
2022-11-25T15:59:51.259Z,100703.25
2022-11-25T16:02:50.378Z,100708.16
2022-11-25T16:05:38.654Z,100706.47
2022-11-25T16:08:37.324Z,100710.81
2022-11-25T16:11:29.255Z,100719.13
2022-11-25T16:14:25.084Z,100714.66
2022-11-25T16:17:13.664Z,100715.59
2022-11-25T16:20:00.623Z,100718.66
2022-11-25T16:22:48.264Z,100722.91
2022-11-25T16:25:35.001Z,100722.91
2022-11-25T16:28:25.371Z,100724.53
2022-11-25T16:31:17.297Z,100733.44
2022-11-25T16:34:14.383Z,100740.97
2022-11-25T16:37:01.084Z,100733.84
2022-11-25T16:39:48.009Z,100734.06
2022-11-25T16:42:35.203Z,100734.81
2022-11-25T16:45:26.077Z,100742.97
2022-11-25T16:48:17.266Z,100738.06
2022-11-25T16:51:06.267Z,100741.66
2022-11-25T16:53:53.220Z,100747.94
2022-11-25T16:56:42.899Z,100747.94
2022-11-25T16:59:33.846Z,100750.66
2022-11-25T17:02:23.463Z,100758.63
2022-11-25T17:05:18.192Z,100761.97
2022-11-25T17:08:05.847Z,100762.75
2022-11-25T17:10:56.285Z,100760.00
2022-11-25T17:13:45.746Z,100758.94
2022-11-25T17:16:32.815Z,100759.59
2022-11-25T17:19:21.254Z,100765.97
2022-11-25T17:22:17.706Z,100773.28
2022-11-25T17:25:05.148Z,100773.00
2022-11-25T17:27:53.197Z,100770.53
2022-11-25T17:30:40.731Z,100778.12
2022-11-25T17:33:27.780Z,100782.13
2022-11-25T17:36:16.266Z,100795.63
2022-11-25T17:39:03.171Z,100800.03
2022-11-25T17:41:51.833Z,100796.19
2022-11-25T17:44:40.144Z,100801.94
2022-11-25T17:47:27.587Z,100801.78
2022-11-25T17:50:21.181Z,100808.91
2022-11-25T17:53:10.355Z,100810.78
2022-11-25T17:55:57.263Z,100812.50
2022-11-25T17:58:44.514Z,100809.66
2022-11-25T18:01:31.646Z,100820.66
2022-11-25T18:04:23.438Z,100822.38
2022-11-25T18:07:11.735Z,100831.69
2022-11-25T18:10:00.229Z,100822.56
2022-11-25T18:12:50.002Z,100827.97
2022-11-25T18:15:38.539Z,100835.19
2022-11-25T18:18:26.484Z,100831.75
2022-11-25T18:21:14.131Z,100844.97
2022-11-25T18:24:00.742Z,100840.28
2022-11-25T18:26:53.014Z,100845.44
2022-11-25T18:29:40.110Z,100844.69
2022-11-25T18:32:27.883Z,100847.66
2022-11-25T18:35:20.899Z,100851.41
2022-11-25T18:38:08.307Z,100855.78
2022-11-25T18:40:56.061Z,100862.03
2022-11-25T18:43:45.124Z,100858.97
2022-11-25T18:46:37.334Z,100869.34
2022-11-25T18:49:24.860Z,100866.28
2022-11-25T18:52:18.128Z,100870.31
2022-11-25T18:55:07.148Z,100875.53
2022-11-25T18:57:57.596Z,100882.34
2022-11-25T19:00:53.311Z,100877.59
2022-11-25T19:03:47.837Z,100892.28
2022-11-25T19:06:36.468Z,100893.53
2022-11-25T19:09:27.717Z,100903.81
2022-11-25T19:12:20.666Z,100901.25
2022-11-25T19:15:08.905Z,100907.78
2022-11-25T19:18:00.577Z,100900.50
2022-11-25T19:20:47.692Z,100906.66
2022-11-25T19:23:36.133Z,100912.66
2022-11-25T19:26:27.518Z,100920.53
2022-11-25T19:29:19.832Z,100922.78
2022-11-25T19:32:14.163Z,100932.41
2022-11-25T19:35:06.415Z,100924.13
2022-11-25T19:37:53.578Z,100933.31
2022-11-25T19:40:41.360Z,100942.53
2022-11-25T19:43:28.531Z,100944.56
2022-11-25T19:46:29.707Z,100953.19
2022-11-25T19:49:19.850Z,100958.78
2022-11-25T19:52:16.258Z,100959.75
2022-11-25T19:55:03.692Z,100968.66
2022-11-25T19:57:51.853Z,100964.97
2022-11-25T20:00:39.138Z,100966.25
2022-11-25T20:03:30.021Z,100976.69
2022-11-25T20:06:19.479Z,100986.37
2022-11-25T20:09:12.572Z,100985.06
2022-11-25T20:12:06.995Z,100991.72
2022-11-25T20:14:58.480Z,100995.31
2022-11-25T20:17:49.121Z,100992.06
2022-11-25T20:20:39.035Z,101002.53
2022-11-25T20:23:30.610Z,101005.78
2022-11-25T20:26:27.638Z,101014.72
2022-11-25T20:29:17.521Z,101008.12
2022-11-25T20:32:19.848Z,101015.47
2022-11-25T20:35:08.521Z,101021.78
2022-11-25T20:37:58.108Z,101031.66
2022-11-25T20:40:47.274Z,101032.28
2022-11-25T20:43:39.056Z,101034.16
2022-11-25T20:46:29.931Z,101035.03
2022-11-25T20:49:22.933Z,101038.97
2022-11-25T20:52:16.554Z,101046.03
2022-11-25T20:55:15.226Z,101045.72
2022-11-25T20:58:02.443Z,101047.09
2022-11-25T21:00:57.068Z,101048.44
2022-11-25T21:03:46.109Z,101050.84
2022-11-25T21:06:40.759Z,101050.94
2022-11-25T21:09:34.595Z,101055.88
2022-11-25T21:12:21.784Z,101061.59
2022-11-25T21:15:14.923Z,101062.25
2022-11-25T21:18:03.357Z,101071.72
2022-11-25T21:20:52.142Z,101070.31
2022-11-25T21:23:39.636Z,101075.34
2022-11-25T21:26:27.760Z,101077.06
2022-11-25T21:29:17.057Z,101086.41
2022-11-25T21:32:04.049Z,101089.31
2022-11-25T21:34:52.977Z,101095.63
2022-11-25T21:37:40.784Z,101093.19
2022-11-25T21:40:34.351Z,101107.00
2022-11-25T21:43:25.346Z,101111.56
2022-11-25T21:46:14.939Z,101119.66
2022-11-25T21:49:01.696Z,101118.53
2022-11-25T21:51:50.292Z,101121.25
2022-11-25T21:54:37.607Z,101122.13
2022-11-25T21:57:28.863Z,101126.62
2022-11-25T22:00:22.332Z,101125.13
2022-11-25T22:03:16.045Z,101132.28
2022-11-25T22:06:02.592Z,101136.19
2022-11-25T22:08:51.953Z,101136.19
2022-11-25T22:11:40.611Z,101145.97
2022-11-25T22:14:34.601Z,101155.16
2022-11-25T22:17:22.104Z,101159.03
2022-11-25T22:20:24.672Z,101153.78
2022-11-25T22:23:16.689Z,101160.06
2022-11-25T22:26:06.003Z,101159.44
2022-11-25T22:28:54.193Z,101156.09
2022-11-25T22:31:41.683Z,101166.22
2022-11-25T22:34:28.506Z,101164.62
2022-11-25T22:37:17.846Z,101163.59
2022-11-25T22:40:05.192Z,101162.75
2022-11-25T22:42:56.310Z,101167.66
2022-11-25T22:45:43.166Z,101178.25
2022-11-25T22:48:33.088Z,101172.84
2022-11-25T22:51:25.823Z,101180.78
2022-11-25T22:54:13.138Z,101185.25
2022-11-25T22:57:00.433Z,101190.09
2022-11-25T22:59:48.996Z,101197.47
2022-11-25T23:02:37.040Z,101202.91
2022-11-25T23:05:31.939Z,101196.25
2022-11-25T23:08:22.304Z,101206.19
2022-11-25T23:11:17.048Z,101197.97
2022-11-25T23:14:03.883Z,101204.69
2022-11-25T23:16:52.808Z,101201.19
2022-11-25T23:19:39.826Z,101205.00
2022-11-25T23:22:27.031Z,101209.06
2022-11-25T23:25:15.606Z,101209.59
2022-11-25T23:28:02.897Z,101218.34
2022-11-25T23:30:53.017Z,101218.03
2022-11-25T23:33:44.223Z,101213.94
2022-11-25T23:36:39.914Z,101218.72
2022-11-25T23:39:28.045Z,101224.63
2022-11-25T23:42:18.236Z,101225.31
2022-11-25T23:45:07.915Z,101229.87
2022-11-25T23:47:56.982Z,101228.50
2022-11-25T23:50:45.896Z,101229.16
2022-11-25T23:53:34.598Z,101235.31
2022-11-25T23:56:22.058Z,101236.81
2022-11-25T23:59:13.698Z,101229.63
